Terminal Aerodrome Forecast
Issued by NWS Cleveland, OH

Home | Current Version | Previous Version | Graphics & Text | Print | Product List | Glossary On
Versions: 1 2 3 4 5 6 7 8 9 10 11 12 13 14 15 16 17 18 19 20 21 22 23 24 25 26 27 28 29
000
FTUS41 KCLE 032000 AAB
TAFCLE
TAF AMD
KCLE 032055Z 0321/0424 21010KT P6SM BKN090
     FM040200 19006KT P6SM SKC
     FM041400 23012G18KT P6SM SCT045 BKN120
     FM041900 23014G20KT P6SM VCSH BKN045 OVC100=

USA.gov is the U.S. government's official web portal to all federal, state and local government web resources and services.